Time;durP1;ratioP1;P1;durP2;ratioP2;P2;SDS_P1;SDS_P2;PMS_P1;PMS_P2;Temp;Humidity;BMP_temperature;BMP_pressure;BME280_temperature;BME280_humidity;BME280_pressure;Samples;Min_cycle;Max_cycle;Signal;HPM_P1;HPM_P2
2022/02/04 00:01:18;;;;;;;7.90;5.40;;;;;;;7.69;73.98;99741.38;1087918;54;20058;-78
2022/02/04 00:05:38;;;;;;;8.43;5.35;;;;;;;7.91;73.07;99740.34;1088510;54;20038;-80
2022/02/04 00:06:57;;;;;;;7.03;4.72;;;;;;;7.77;73.69;99752.19;1088556;54;20033;-80
2022/02/04 00:08:38;;;;;;;7.63;5.05;;;;;;;7.76;73.88;99757.63;1096506;46;20026;-79
2022/02/04 00:10:04;;;;;;;;;;;;;;;7.78;73.86;99748.56;1089696;46;20057;-83
2022/02/04 00:23:43;;;;;;;8.10;5.32;;;;;;;7.43;74.64;99764.91;1088093;54;20030;-78
2022/02/04 00:24:51;;;;;;;8.75;5.72;;;;;;;7.32;75.13;99771.16;1088236;54;20035;-80
2022/02/04 00:26:05;;;;;;;9.10;5.15;;;;;;;7.34;75.14;99779.81;1088206;54;20038;-79
2022/02/04 00:27:11;;;;;;;8.98;5.75;;;;;;;7.31;75.02;99764.97;1088262;54;20026;-81
2022/02/04 00:28:23;;;;;;;7.35;5.28;;;;;;;7.30;75.28;99771.25;1088129;54;20023;-79
2022/02/04 00:29:30;;;;;;;8.38;5.72;;;;;;;7.42;75.04;99768.53;1088102;54;20027;-81
2022/02/04 00:30:39;;;;;;;8.85;5.90;;;;;;;7.55;74.63;99771.84;1088183;54;20907;-79
2022/02/04 00:31:46;;;;;;;9.48;5.45;;;;;;;7.50;74.52;99768.72;1088269;54;20043;-80
2022/02/04 00:32:53;;;;;;;7.28;5.35;;;;;;;7.49;75.03;99781.19;1091230;39;20705;-82
2022/02/04 00:34:03;;;;;;;6.97;4.60;;;;;;;7.67;74.46;99766.41;1088157;54;20026;-80
2022/02/04 00:35:17;;;;;;;7.18;4.63;;;;;;;7.69;74.17;99772.44;1089710;46;20025;-80
2022/02/04 00:36:24;;;;;;;7.78;5.45;;;;;;;7.49;74.52;99769.69;1088237;54;20018;-78
2022/02/04 00:37:36;;;;;;;7.75;5.40;;;;;;;7.58;74.63;99774.22;1088095;54;20034;-79
2022/02/04 00:38:52;;;;;;;8.63;5.75;;;;;;;7.69;74.21;99769.78;1088064;54;20042;-81
2022/02/04 00:40:09;;;;;;;7.05;4.70;;;;;;;7.78;73.88;99771.66;1088128;54;20348;-80
2022/02/04 00:41:13;;;;;;;7.22;4.78;;;;;;;7.80;73.82;99775.03;1088312;54;20054;-81
2022/02/04 00:42:18;;;;;;;7.43;4.38;;;;;;;7.61;74.38;99765.97;1088430;54;20049;-81
2022/02/04 00:43:20;;;;;;;7.07;5.00;;;;;;;7.68;74.17;99776.94;1088370;54;20038;-81
2022/02/04 00:44:31;;;;;;;8.80;5.82;;;;;;;7.53;74.63;99781.75;1088330;54;20094;-81
2022/02/04 00:45:39;;;;;;;8.48;5.50;;;;;;;7.72;74.25;99772.19;1093373;39;20601;-81
2022/02/04 00:46:56;;;;;;;10.48;5.32;;;;;;;7.53;74.70;99773.78;1088391;54;20019;-83
2022/02/04 00:48:25;;;;;;;6.93;4.72;;;;;;;7.63;74.34;99780.00;1088423;54;20027;-81
2022/02/04 00:49:45;;;;;;;6.82;4.80;;;;;;;7.71;74.13;99775.81;1088417;54;20062;-79
2022/02/04 00:51:01;;;;;;;7.28;5.25;;;;;;;7.61;74.01;99779.28;1092883;39;20725;-80
2022/02/04 00:52:14;;;;;;;8.32;5.65;;;;;;;7.55;74.48;99781.63;1088366;54;20026;-82
2022/02/04 00:53:22;;;;;;;6.88;4.80;;;;;;;7.68;74.05;99771.63;1088382;54;20876;-80
2022/02/04 00:54:50;;;;;;;7.20;4.95;;;;;;;7.67;74.15;99769.94;1088474;54;20023;-83
2022/02/04 00:56:05;;;;;;;7.20;4.40;;;;;;;7.77;73.98;99768.16;1088358;54;20053;-78
2022/02/04 00:57:17;;;;;;;7.82;4.70;;;;;;;7.61;74.28;99778.41;1088248;54;20049;-80
2022/02/04 01:26:42;;;;;;;10.75;5.60;;;;;;;7.12;76.78;99786.97;1088491;54;20780;-81
2022/02/04 01:27:46;;;;;;;10.27;5.65;;;;;;;7.17;76.56;99790.06;1095506;39;20645;-81
2022/02/04 01:28:53;;;;;;;8.55;5.88;;;;;;;7.21;76.24;99781.84;1088403;54;20026;-83
2022/02/04 01:30:01;;;;;;;8.77;6.13;;;;;;;7.20;76.31;99790.78;1088420;54;20031;-81
2022/02/04 01:31:06;;;;;;;10.27;5.85;;;;;;;7.22;76.31;99786.19;1088501;54;20022;-81
2022/02/04 01:32:17;;;;;;;7.47;5.38;;;;;;;7.25;76.13;99784.13;1088513;54;20038;-79
2022/02/04 01:33:21;;;;;;;7.63;4.88;;;;;;;7.33;75.64;99786.97;1088468;54;20841;-80
2022/02/04 01:34:28;;;;;;;8.20;4.97;;;;;;;7.41;75.59;99782.81;1088461;54;20050;-81
2022/02/04 01:35:41;;;;;;;11.35;5.95;;;;;;;7.27;76.00;99782.19;1088466;54;20042;-81
2022/02/04 01:36:45;;;;;;;7.85;5.20;;;;;;;7.25;76.02;99778.78;1088490;54;20034;-81
2022/02/04 01:37:47;;;;;;;10.63;6.65;;;;;;;7.20;75.99;99778.31;1089352;39;20649;-80
2022/02/04 01:38:52;;;;;;;8.27;5.82;;;;;;;7.22;75.86;99780.88;1088481;54;20022;-82
2022/02/04 01:39:54;;;;;;;9.25;5.32;;;;;;;7.24;75.98;99777.09;1088479;54;20026;-82
2022/02/04 01:41:00;;;;;;;7.93;5.28;;;;;;;7.28;75.93;99781.19;1088487;54;20027;-80
2022/02/04 01:42:02;;;;;;;8.07;5.00;;;;;;;7.37;75.59;99774.25;1088445;54;20023;-81
2022/02/04 01:43:21;;;;;;;7.15;4.65;;;;;;;7.40;75.20;99783.78;1088433;54;20030;-80
2022/02/04 01:44:25;;;;;;;9.45;5.15;;;;;;;7.38;75.48;99785.72;1088270;54;20058;-81
2022/02/04 01:45:29;;;;;;;9.20;5.47;;;;;;;7.39;75.29;99776.75;1088391;54;20015;-82
2022/02/04 01:46:34;;;;;;;8.13;5.45;;;;;;;7.31;75.37;99780.94;1088455;54;20026;-80
2022/02/04 01:47:36;;;;;;;9.40;6.13;;;;;;;7.24;75.43;99779.78;1088407;54;20026;-81
2022/02/04 01:48:42;;;;;;;9.25;5.55;;;;;;;7.20;75.56;99782.81;1088461;54;20086;-81
2022/02/04 01:49:44;;;;;;;7.70;5.43;;;;;;;7.27;75.66;99779.53;1088416;54;20050;-79
2022/02/04 01:50:58;;;;;;;8.52;6.07;;;;;;;7.33;75.28;99784.31;1088389;54;20038;-80
2022/02/04 01:52:02;;;;;;;7.18;5.03;;;;;;;7.39;75.00;99777.63;1088373;54;20034;-80
2022/02/04 01:53:07;;;;;;;7.28;5.10;;;;;;;7.48;74.86;99781.28;1088387;54;20030;-82
2022/02/04 01:54:09;;;;;;;7.63;5.18;;;;;;;7.38;75.15;99772.41;1088441;54;20045;-80
2022/02/04 01:55:13;;;;;;;7.80;5.03;;;;;;;7.47;74.91;99779.59;1088367;54;20107;-80
2022/02/04 01:56:18;;;;;;;8.93;5.05;;;;;;;7.37;74.83;99789.38;1088403;54;20773;-81
2022/02/04 01:57:20;;;;;;;8.95;4.82;;;;;;;7.36;75.07;99777.88;1088165;54;20018;-81
2022/02/04 01:58:25;;;;;;;8.48;5.22;;;;;;;7.44;74.40;99770.06;1088454;54;20037;-80
2022/02/04 01:59:27;;;;;;;7.93;5.50;;;;;;;7.38;74.47;99783.06;1089484;46;20037;-80
2022/02/04 02:00:32;;;;;;;7.82;5.00;;;;;;;7.28;74.86;99780.34;1088347;54;20018;-81
2022/02/04 02:01:34;;;;;;;9.48;5.72;;;;;;;7.23;74.94;99771.91;1088407;54;20042;-81
2022/02/04 02:02:38;;;;;;;9.10;5.57;;;;;;;7.26;75.04;99779.63;1088327;54;20010;-80
2022/02/04 02:03:41;;;;;;;8.98;5.30;;;;;;;7.24;75.02;99784.22;1088319;54;20054;-79
2022/02/04 02:04:47;;;;;;;9.02;5.55;;;;;;;7.22;75.15;99780.88;1088501;54;20862;-82
2022/02/04 02:05:50;;;;;;;8.48;5.22;;;;;;;7.26;75.29;99782.28;1088453;54;20042;-81
2022/02/04 02:07:00;;;;;;;8.98;5.72;;;;;;;7.17;75.36;99791.91;1088298;54;20021;-80
2022/02/04 02:08:06;;;;;;;7.45;5.55;;;;;;;7.38;74.72;99785.72;1088238;54;20022;-79
2022/02/04 02:09:10;;;;;;;7.72;4.97;;;;;;;7.45;74.44;99789.56;1088288;54;20037;-79
2022/02/04 02:10:16;;;;;;;7.45;5.47;;;;;;;7.32;74.40;99784.44;1088296;54;20030;-79
2022/02/04 02:11:20;;;;;;;9.32;6.03;;;;;;;7.29;74.93;99796.16;1088336;54;20019;-79
2022/02/04 02:12:25;;;;;;;9.05;5.45;;;;;;;7.43;74.51;99787.00;1092370;39;20693;-81
2022/02/04 02:13:42;;;;;;;10.55;5.90;;;;;;;7.59;74.04;99788.38;1088473;54;20010;-80
2022/02/04 02:14:44;;;;;;;6.15;4.32;;;;;;;7.64;73.84;99784.34;1088266;54;20050;-78
2022/02/04 02:15:56;;;;;;;8.98;5.60;;;;;;;7.43;74.39;99788.84;1088862;39;20701;-80
2022/02/04 02:34:21;;;;;;;9.00;6.15;;;;;;;6.75;78.62;99790.03;1088272;54;20026;-78
2022/02/04 02:35:34;;;;;;;12.10;6.72;;;;;;;6.74;78.99;99782.16;1088217;54;20022;-80
2022/02/04 02:44:37;;;;;;;9.93;6.40;;;;;;;6.90;78.86;99787.88;1087932;54;20035;-80
2022/02/04 02:48:32;;;;;;;10.98;6.78;;;;;;;6.66;80.14;99791.63;1087706;54;20034;-80
2022/02/04 02:50:05;;;;;;;9.88;6.30;;;;;;;6.82;79.96;99785.03;1087991;54;20062;-80
2022/02/04 02:55:43;;;;;;;9.23;5.68;;;;;;;6.62;81.14;99798.13;1087995;54;20050;-80
2022/02/04 02:58:12;;;;;;;9.50;6.18;;;;;;;6.58;81.35;99798.50;1087340;54;21442;-79
2022/02/04 02:59:28;;;;;;;9.70;7.22;;;;;;;6.53;81.98;99806.84;1088047;54;20030;-79
2022/02/04 03:00:45;;;;;;;8.40;6.50;;;;;;;6.50;82.13;99805.31;1087859;54;20011;-81
2022/02/04 03:01:50;;;;;;;9.02;6.07;;;;;;;6.44;82.68;99799.63;1087942;54;20046;-78
2022/02/04 03:02:59;;;;;;;9.52;6.18;;;;;;;6.46;82.91;99795.06;1088056;54;20011;-79
2022/02/04 03:04:05;;;;;;;10.15;6.20;;;;;;;6.47;82.62;99794.09;1093665;39;20739;-80
2022/02/04 03:05:10;;;;;;;9.55;6.18;;;;;;;6.37;83.32;99794.84;1088017;54;20034;-80
2022/02/04 03:06:12;;;;;;;9.32;6.05;;;;;;;6.49;82.88;99794.81;1088029;54;20059;-79
2022/02/04 03:07:16;;;;;;;8.93;5.38;;;;;;;6.54;82.86;99792.63;1088031;54;20745;-79
2022/02/04 03:08:28;;;;;;;9.50;6.57;;;;;;;6.39;83.49;99794.69;1088096;54;20022;-81
2022/02/04 03:09:32;;;;;;;11.50;6.60;;;;;;;6.51;82.93;99795.53;1087991;54;20049;-81
2022/02/04 03:10:48;;;;;;;9.13;5.50;;;;;;;6.53;82.75;99793.56;1088219;54;20040;-82
2022/02/04 03:11:53;;;;;;;9.15;6.00;;;;;;;6.59;82.25;99795.75;1088150;54;20023;-81
2022/02/04 03:12:55;;;;;;;7.55;5.55;;;;;;;6.54;82.77;99792.63;1088126;54;20023;-79
2022/02/04 03:13:59;;;;;;;8.77;5.18;;;;;;;6.69;82.60;99785.19;1088078;54;20026;-81
2022/02/04 03:15:14;;;;;;;9.88;5.80;;;;;;;6.63;82.89;99785.72;1088022;54;20781;-80
2022/02/04 03:16:18;;;;;;;8.82;5.90;;;;;;;6.53;83.20;99777.66;1088057;54;20081;-79
2022/02/04 03:17:30;;;;;;;8.75;5.75;;;;;;;6.57;83.21;99784.41;1088261;47;20026;-82
2022/02/04 03:18:35;;;;;;;7.68;5.25;;;;;;;6.68;82.70;99787.03;1087934;54;20122;-82
2022/02/04 03:19:44;;;;;;;8.95;5.50;;;;;;;6.70;82.45;99781.59;1088030;54;20059;-81
2022/02/04 03:20:48;;;;;;;7.50;5.68;;;;;;;6.69;82.48;99786.06;1088193;54;20041;-82
2022/02/04 03:21:53;;;;;;;11.75;5.60;;;;;;;6.72;82.56;99787.63;1088367;54;20018;-81
2022/02/04 03:22:56;;;;;;;8.05;5.18;;;;;;;6.65;83.04;99783.78;1088235;54;20038;-80
2022/02/04 03:24:08;;;;;;;9.38;6.40;;;;;;;6.52;83.79;99790.09;1088336;54;20022;-82
2022/02/04 03:25:18;;;;;;;7.70;5.50;;;;;;;6.67;83.61;99788.00;1088331;54;20074;-82
2022/02/04 03:26:30;;;;;;;7.40;5.38;;;;;;;6.63;83.31;99785.72;1088263;54;20027;-80
2022/02/04 03:27:37;;;;;;;9.30;5.80;;;;;;;6.48;84.04;99790.47;1088290;54;20023;-81
2022/02/04 03:28:41;;;;;;;9.55;6.53;;;;;;;6.51;84.05;99788.41;1088184;54;20037;-79
2022/02/04 03:30:03;;;;;;;11.65;6.25;;;;;;;6.48;84.69;99798.44;1088217;54;20057;-81
2022/02/04 03:31:09;;;;;;;9.50;6.28;;;;;;;6.43;84.73;99792.63;1088189;54;20046;-80
2022/02/04 03:32:17;;;;;;;9.52;6.53;;;;;;;6.46;84.65;99792.41;1088177;54;20903;-80
2022/02/04 03:33:24;;;;;;;9.68;6.57;;;;;;;6.38;84.98;99793.88;1087980;54;20042;-80
2022/02/04 03:34:26;;;;;;;11.40;7.35;;;;;;;6.35;85.31;99790.63;1088183;54;20022;-80
2022/02/04 03:35:32;;;;;;;11.25;6.60;;;;;;;6.34;85.19;99795.06;1088137;54;20041;-80
2022/02/04 03:36:35;;;;;;;10.30;6.32;;;;;;;6.36;85.38;99793.13;1088148;54;20037;-81
2022/02/04 03:37:45;;;;;;;10.80;6.93;;;;;;;6.40;85.63;99796.38;1088016;54;20018;-80
2022/02/04 03:38:47;;;;;;;9.15;5.72;;;;;;;6.40;85.04;99797.25;1088214;54;20023;-80
2022/02/04 03:40:00;;;;;;;14.00;5.95;;;;;;;6.32;85.87;99791.72;1088075;54;20022;-80
2022/02/04 03:41:01;;;;;;;9.02;6.35;;;;;;;6.39;85.31;99795.56;1088104;54;20026;-80
2022/02/04 03:42:06;;;;;;;8.35;6.20;;;;;;;6.35;85.31;99793.28;1088091;54;20086;-80
2022/02/04 03:43:08;;;;;;;8.32;6.07;;;;;;;6.32;85.61;99791.72;1094244;47;20038;-80
2022/02/04 03:44:14;;;;;;;9.55;6.25;;;;;;;6.40;85.43;99797.25;1088134;54;20014;-80
2022/02/04 03:45:16;;;;;;;11.15;6.50;;;;;;;6.30;85.75;99800.75;1088150;54;20121;-81
2022/02/04 03:46:22;;;;;;;8.80;6.60;;;;;;;6.26;85.95;99797.50;1088101;54;20058;-81
2022/02/04 03:47:24;;;;;;;9.48;6.05;;;;;;;6.27;86.22;99803.66;1088092;54;20655;-80
2022/02/04 03:48:29;;;;;;;8.93;6.28;;;;;;;6.25;86.33;99798.47;1088123;54;20038;-81
2022/02/04 03:49:30;;;;;;;9.07;6.00;;;;;;;6.33;86.03;99806.66;1088111;54;20015;-81
2022/02/04 03:50:35;;;;;;;9.50;6.38;;;;;;;6.27;86.36;99799.19;1088165;54;20046;-79
2022/02/04 03:51:39;;;;;;;8.00;5.95;;;;;;;6.32;86.09;99804.13;1088041;54;20031;-81
2022/02/04 03:52:44;;;;;;;8.25;6.20;;;;;;;6.35;85.99;99798.59;1088119;54;20037;-80
2022/02/04 03:53:46;;;;;;;9.07;5.43;;;;;;;6.38;85.87;99804.50;1088146;54;20102;-80
2022/02/04 03:54:51;;;;;;;7.43;5.32;;;;;;;6.50;85.38;99804.47;1088216;54;20851;-80
2022/02/04 03:55:59;;;;;;;7.75;5.60;;;;;;;6.48;85.56;99801.09;1088130;54;20085;-79
2022/02/04 03:57:00;;;;;;;7.88;5.88;;;;;;;6.45;85.76;99801.31;1088134;54;20064;-80
2022/02/04 03:58:05;;;;;;;7.43;5.25;;;;;;;6.44;85.83;99803.16;1088125;54;20086;-80
2022/02/04 03:59:07;;;;;;;10.30;5.57;;;;;;;6.44;85.76;99796.97;1087645;54;20042;-80
2022/02/04 04:00:16;;;;;;;7.80;5.28;;;;;;;6.45;85.66;99802.19;1088007;54;20026;-79
2022/02/04 04:01:19;;;;;;;8.23;5.38;;;;;;;6.44;85.64;99800.50;1088182;54;20065;-80
2022/02/04 04:02:26;;;;;;;8.48;5.53;;;;;;;6.50;85.53;99801.81;1088105;54;20091;-80
2022/02/04 04:03:30;;;;;;;7.68;5.35;;;;;;;6.44;85.80;99803.16;1088180;54;20015;-79
2022/02/04 04:04:35;;;;;;;7.13;5.25;;;;;;;6.50;85.36;99807.13;1088208;54;20061;-80
2022/02/04 04:05:45;;;;;;;8.23;5.97;;;;;;;6.49;85.59;99808.91;1088109;54;20751;-80
2022/02/04 04:06:48;;;;;;;7.18;5.00;;;;;;;6.47;85.86;99807.38;1088143;54;20034;-80
2022/02/04 04:07:54;;;;;;;8.13;5.78;;;;;;;6.45;85.92;99810.16;1096596;39;20797;-81
2022/02/04 04:08:56;;;;;;;10.45;5.80;;;;;;;6.51;85.65;99806.16;1088184;54;20018;-80
2022/02/04 04:10:06;;;;;;;10.88;5.68;;;;;;;6.47;85.68;99808.19;1088214;54;20033;-79
2022/02/04 04:11:13;;;;;;;7.78;5.13;;;;;;;6.40;85.95;99815.84;1088147;54;20019;-80
2022/02/04 04:12:20;;;;;;;7.85;5.88;;;;;;;6.37;86.13;99809.94;1088143;54;20014;-79
2022/02/04 04:13:22;;;;;;;9.38;6.32;;;;;;;6.39;86.21;99806.19;1088158;54;20022;-80
2022/02/04 04:14:29;;;;;;;8.20;5.95;;;;;;;6.33;86.22;99803.16;1088149;54;20114;-81
2022/02/04 04:15:31;;;;;;;8.43;5.95;;;;;;;6.32;86.57;99810.31;1088176;54;20034;-81
2022/02/04 04:16:35;;;;;;;10.35;6.63;;;;;;;6.41;86.27;99808.69;1088097;54;20819;-81
2022/02/04 04:17:40;;;;;;;7.90;5.57;;;;;;;6.45;85.71;99811.94;1088146;54;20765;-80
2022/02/04 04:18:45;;;;;;;9.10;6.00;;;;;;;6.43;85.85;99805.91;1088144;54;20058;-82
2022/02/04 04:19:47;;;;;;;8.98;5.75;;;;;;;6.46;85.76;99806.53;1088052;54;20815;-82
2022/02/04 04:21:01;;;;;;;8.10;6.15;;;;;;;6.45;85.87;99820.78;1088170;54;20031;-82
2022/02/04 04:22:03;;;;;;;7.45;5.55;;;;;;;6.50;85.60;99812.44;1088106;54;20034;-81
2022/02/04 04:23:14;;;;;;;7.55;6.00;;;;;;;6.50;85.25;99812.44;1088143;54;20057;-80
2022/02/04 04:24:15;;;;;;;8.32;5.72;;;;;;;6.50;85.54;99817.75;1090793;47;20019;-80
2022/02/04 04:25:40;;;;;;;8.93;5.70;;;;;;;6.48;85.18;99815.19;1088150;54;20026;-80
2022/02/04 04:26:44;;;;;;;8.05;5.47;;;;;;;6.51;85.08;99817.63;1088078;54;20023;-79
2022/02/04 04:27:53;;;;;;;8.18;6.32;;;;;;;6.54;85.24;99816.50;1087997;54;20018;-80
2022/02/04 04:28:55;;;;;;;8.07;5.97;;;;;;;6.52;85.28;99823.75;1096719;39;20650;-81
2022/02/04 04:29:59;;;;;;;13.40;6.00;;;;;;;6.52;85.26;99821.09;1088020;54;20061;-79
2022/02/04 04:31:06;;;;;;;7.00;5.30;;;;;;;6.58;85.14;99819.75;1088043;54;20753;-80
2022/02/04 04:32:11;;;;;;;8.20;5.85;;;;;;;6.57;84.85;99824.25;1088097;54;20049;-81
2022/02/04 04:33:27;;;;;;;7.30;5.22;;;;;;;6.52;85.05;99826.41;1088031;54;20034;-79
2022/02/04 04:34:29;;;;;;;8.05;6.00;;;;;;;6.47;85.34;99824.13;1088305;46;20070;-80
2022/02/04 04:35:35;;;;;;;6.93;5.18;;;;;;;6.52;85.29;99821.09;1088076;54;20046;-80
2022/02/04 04:36:37;;;;;;;6.85;5.05;;;;;;;6.70;84.56;99832.91;1088110;54;20158;-80
2022/02/04 04:37:58;;;;;;;7.00;5.15;;;;;;;6.82;83.96;99827.53;1088111;54;20045;-79
2022/02/04 04:39:08;;;;;;;6.13;4.38;;;;;;;6.85;83.75;99827.31;1088042;54;20025;-82
2022/02/04 04:40:31;;;;;;;7.65;4.78;;;;;;;6.93;83.59;99829.34;1088003;54;20038;-81
2022/02/04 04:41:46;;;;;;;8.05;4.40;;;;;;;6.78;83.34;99821.66;1088172;54;20023;-81
2022/02/04 04:43:03;;;;;;;5.75;4.00;;;;;;;6.68;83.28;99832.19;1088115;54;20038;-80
2022/02/04 05:28:27;;;;;;;6.78;3.70;;;;;;;6.52;81.72;99826.41;1090493;39;20633;-82
2022/02/04 05:29:31;;;;;;;6.68;3.22;;;;;;;6.49;82.05;99832.81;1088071;54;20031;-81
2022/02/04 05:30:36;;;;;;;5.25;3.28;;;;;;;6.53;81.85;99828.97;1088165;54;20030;-80
2022/02/04 05:31:40;;;;;;;6.65;3.88;;;;;;;6.50;82.09;99834.50;1088210;54;20041;-80
2022/02/04 05:32:51;;;;;;;5.60;3.38;;;;;;;6.66;81.50;99833.28;1088132;54;20769;-81
2022/02/04 05:33:56;;;;;;;6.18;3.90;;;;;;;6.55;81.89;99826.19;1088276;54;20034;-80
2022/02/04 05:35:00;;;;;;;6.25;3.92;;;;;;;6.53;82.04;99828.09;1088216;54;20044;-80
2022/02/04 05:36:07;;;;;;;4.93;3.58;;;;;;;6.62;81.58;99834.50;1088170;54;20030;-81
2022/02/04 05:37:11;;;;;;;6.28;3.75;;;;;;;6.60;82.07;99831.97;1088228;54;20812;-82
2022/02/04 05:38:19;;;;;;;5.55;3.90;;;;;;;6.54;82.24;99843.06;1088218;54;20041;-80
2022/02/04 05:39:27;;;;;;;7.28;3.97;;;;;;;6.71;81.58;99831.09;1088410;54;20045;-82
2022/02/04 05:40:38;;;;;;;5.28;3.33;;;;;;;6.73;81.76;99837.13;1088443;54;20213;-81
2022/02/04 05:41:47;;;;;;;6.95;4.55;;;;;;;6.60;82.08;99836.44;1088432;54;20030;-79
2022/02/04 05:42:57;;;;;;;7.85;4.43;;;;;;;6.59;81.95;99838.25;1088325;54;20111;-81
2022/02/04 05:44:05;;;;;;;5.95;4.25;;;;;;;6.68;81.79;99834.84;1088227;54;20904;-81
2022/02/04 05:45:18;;;;;;;6.00;4.18;;;;;;;6.60;82.16;99839.94;1088469;54;20082;-79
2022/02/04 05:46:25;;;;;;;7.50;4.10;;;;;;;6.60;82.08;99834.63;1088164;54;20034;-81
2022/02/04 05:47:31;;;;;;;6.57;4.32;;;;;;;6.64;82.12;99835.22;1088018;54;20042;-81
2022/02/04 05:48:36;;;;;;;6.38;4.28;;;;;;;6.70;81.84;99840.03;1088288;54;20026;-81
2022/02/04 05:50:18;;;;;;;6.03;4.32;;;;;;;6.56;82.16;99834.00;1088133;54;20022;-81
2022/02/04 05:51:31;;;;;;;7.18;4.60;;;;;;;6.51;82.49;99835.38;1089776;46;20034;-81
2022/02/04 05:52:51;;;;;;;6.70;4.35;;;;;;;6.57;82.46;99842.84;1088470;54;20033;-80
2022/02/04 05:54:48;;;;;;;6.63;4.57;;;;;;;6.62;82.30;99839.81;1089902;46;20777;-81
2022/02/04 05:55:59;;;;;;;6.45;4.57;;;;;;;6.48;82.77;99846.22;1088458;54;20062;-80
2022/02/04 05:57:09;;;;;;;8.05;4.53;;;;;;;6.51;82.86;99848.66;1091557;47;20030;-80
2022/02/04 05:58:26;;;;;;;7.65;5.22;;;;;;;6.52;82.68;99840.56;1088406;54;20086;-82
2022/02/04 05:59:46;;;;;;;6.60;4.90;;;;;;;6.58;82.59;99843.66;1088407;54;20041;-81
2022/02/04 06:00:58;;;;;;;7.47;4.28;;;;;;;6.54;82.87;99845.72;1088099;54;20034;-81
2022/02/04 06:04:00;;;;;;;7.30;5.05;;;;;;;6.64;82.40;99836.06;1088419;54;20007;-80
2022/02/04 06:05:12;;;;;;;6.60;4.70;;;;;;;6.70;81.99;99840.88;1088457;54;20679;-81
2022/02/04 06:06:41;;;;;;;7.35;5.10;;;;;;;6.51;82.35;99848.66;1088434;54;20115;-81
2022/02/04 06:08:20;;;;;;;7.75;5.07;;;;;;;6.56;82.32;99846.47;1088375;54;20035;-80
2022/02/04 06:10:19;;;;;;;8.23;4.97;;;;;;;6.55;82.45;99852.72;1088468;54;20046;-81
2022/02/04 06:11:40;;;;;;;7.75;5.22;;;;;;;6.48;82.54;99849.72;1088389;54;20041;-82
2022/02/04 06:22:43;;;;;;;6.80;5.22;;;;;;;6.27;83.56;99849.63;1088525;54;20003;-81
2022/02/04 06:24:10;;;;;;;7.65;5.53;;;;;;;6.34;83.51;99845.53;1088355;54;20042;-80
2022/02/04 06:25:12;;;;;;;9.73;5.72;;;;;;;6.33;83.22;99833.22;1088349;54;20050;-81
2022/02/04 06:28:05;;;;;;;6.78;4.47;;;;;;;6.44;82.85;99837.69;1111884;39;20689;-82
2022/02/04 06:29:10;;;;;;;7.25;5.55;;;;;;;6.43;82.62;99835.97;1088403;54;20038;-81
2022/02/04 06:30:25;;;;;;;8.30;5.28;;;;;;;6.49;82.79;99843.44;1088397;54;20038;-81
2022/02/04 06:31:30;;;;;;;6.82;5.40;;;;;;;6.59;82.26;99838.25;1088277;54;20035;-82
2022/02/04 06:32:38;;;;;;;8.98;5.75;;;;;;;6.49;82.51;99848.75;1088396;54;20106;-81
2022/02/04 06:33:43;;;;;;;18.20;5.40;;;;;;;6.31;82.91;99840.47;1088419;54;20058;-82
2022/02/04 06:35:15;;;;;;;10.00;5.57;;;;;;;6.36;82.66;99846.25;1088413;54;20103;-81
2022/02/04 06:36:50;;;;;;;6.93;5.00;;;;;;;6.40;82.57;99837.09;1095984;39;20677;-81
2022/02/04 06:37:52;;;;;;;7.75;5.38;;;;;;;6.40;82.71;99845.03;1088402;54;20762;-82
2022/02/04 06:39:20;;;;;;;7.20;5.00;;;;;;;6.46;82.40;99843.72;1088449;54;20045;-81
2022/02/04 06:40:22;;;;;;;7.82;5.47;;;;;;;6.53;82.21;99844.03;1088378;54;20030;-82
2022/02/04 06:41:58;;;;;;;7.47;5.03;;;;;;;6.54;81.98;99832.44;1088472;54;20750;-81
2022/02/04 06:43:00;;;;;;;7.50;5.65;;;;;;;6.51;81.77;99841.53;1099460;39;20659;-80
2022/02/04 06:51:21;;;;;;;7.25;4.70;;;;;;;6.43;81.66;99837.78;1097277;39;20764;-80
2022/02/04 06:54:12;;;;;;;7.07;4.65;;;;;;;6.38;81.90;99852.28;1088180;54;20009;-79
2022/02/04 06:55:35;;;;;;;6.90;4.32;;;;;;;6.49;81.43;99850.59;1102430;39;20714;-81
2022/02/04 06:56:44;;;;;;;7.60;4.80;;;;;;;6.42;81.75;99854.72;1094674;39;20714;-79
2022/02/04 06:57:48;;;;;;;6.63;4.93;;;;;;;6.43;81.69;99854.56;1088433;54;20025;-80
2022/02/04 06:59:00;;;;;;;7.63;5.38;;;;;;;6.38;81.75;99852.28;1088457;54;20045;-83
2022/02/04 07:00:04;;;;;;;8.02;5.28;;;;;;;6.47;81.49;99855.16;1088370;54;20026;-81
2022/02/04 07:01:09;;;;;;;7.72;4.68;;;;;;;6.43;81.79;99849.25;1088260;54;20035;-80
2022/02/04 07:02:46;;;;;;;6.90;4.53;;;;;;;6.49;81.58;99856.72;1088491;54;20014;-82
2022/02/04 07:07:32;;;;;;;8.95;5.53;;;;;;;6.54;81.29;99854.56;1088076;31;21227;-81
2022/02/04 07:08:45;;;;;;;8.88;5.20;;;;;;;6.51;81.52;99861.94;1088131;54;20041;-81
2022/02/04 07:51:07;;;;;;;8.27;4.63;;;;;;;6.69;79.58;99865.75;1087535;54;20053;-82
2022/02/04 07:54:31;;;;;;;7.90;4.32;;;;;;;6.83;79.34;99859.31;1087542;54;20027;-80
2022/02/04 07:55:35;;;;;;;6.15;4.05;;;;;;;6.82;79.40;99860.28;1087923;54;20027;-81
2022/02/04 07:56:57;;;;;;;5.90;4.13;;;;;;;6.69;79.38;99865.75;1088039;54;20030;-81
2022/02/04 08:19:27;;;;;;;6.68;3.17;;;;;;;6.79;78.48;99870.34;1087778;54;21018;-80
2022/02/04 08:27:06;;;;;;;7.05;3.42;;;;;;;6.67;78.96;99872.16;1088545;54;20075;-80
2022/02/04 09:36:00;;;;;;;4.55;2.00;;;;;;;8.15;69.82;99832.31;1087924;54;20022;-82
2022/02/04 10:34:27;;;;;;;3.80;1.00;;;;;;;8.12;67.67;99805.97;1088409;54;20017;-81
2022/02/04 10:35:50;;;;;;;2.78;1.02;;;;;;;8.12;67.53;99808.66;1088367;54;20754;-80
2022/02/04 10:37:03;;;;;;;3.45;1.10;;;;;;;8.07;67.36;99802.88;1088460;54;20022;-81
2022/02/04 10:38:15;;;;;;;2.45;0.88;;;;;;;8.15;67.30;99805.69;1088262;54;20041;-81
2022/02/04 10:39:52;;;;;;;3.90;1.08;;;;;;;8.15;67.41;99797.69;1088385;54;20761;-81
2022/02/04 12:32:32;;;;;;;;;;;;;;;8.83;59.20;99637.09;1088540;54;20266;-82
2022/02/04 12:33:42;;;;;;;3.42;1.00;;;;;;;8.82;59.00;99632.75;1081387;39;20208;-81
2022/02/04 12:34:54;;;;;;;2.97;0.70;;;;;;;8.82;59.07;99634.59;1088619;54;20025;-81
2022/02/04 12:35:59;;;;;;;1.92;0.63;;;;;;;8.77;58.74;99637.69;1088227;54;20051;-82
2022/02/04 12:37:22;;;;;;;2.25;0.80;;;;;;;8.81;58.62;99636.38;1088391;54;20030;-82
2022/02/04 12:43:16;;;;;;;2.58;0.80;;;;;;;9.10;58.04;99630.13;1087819;54;20025;-81
2022/02/04 13:21:36;;;;;;;1.77;0.57;;;;;;;8.79;58.25;99610.88;1077837;54;20019;-83
2022/02/04 13:25:39;;;;;;;2.63;0.80;;;;;;;8.54;58.78;99615.84;1074207;54;21454;-81
2022/02/04 13:41:05;;;;;;;3.92;1.50;;;;;;;8.22;62.17;99601.78;1087913;54;20022;-83
2022/02/04 13:46:11;;;;;;;5.65;1.75;;;;;;;8.19;62.74;99598.56;1072434;54;20030;31
2022/02/04 14:14:45;;;;;;;3.97;1.57;;;;;;;8.05;61.28;99554.56;1073118;54;20097;-82
2022/02/04 14:15:51;;;;;;;2.25;0.90;;;;;;;8.16;61.26;99562.41;1105779;39;20673;-81
2022/02/04 14:17:01;;;;;;;4.38;0.80;;;;;;;8.10;61.16;99552.34;1088542;54;20681;-84
2022/02/04 14:18:09;;;;;;;2.80;1.10;;;;;;;8.15;60.92;99565.22;1088542;54;20026;-85
2022/02/04 14:24:53;;;;;;;2.38;0.77;;;;;;;8.31;60.01;99564.66;1074775;54;20042;-81
2022/02/04 15:29:23;;;;;;;3.58;1.33;;;;;;;8.55;60.24;99484.28;1077242;54;19958;-80
2022/02/04 15:30:30;;;;;;;3.65;1.58;;;;;;;8.53;60.34;99494.25;1088535;54;20033;-82
2022/02/04 16:39:29;;;;;;;3.95;1.30;;;;;;;8.50;61.05;99436.75;1071567;54;19976;31
2022/02/04 16:41:03;;;;;;;;;;;;;;;;;;;;;
2022/02/04 17:35:09;;;;;;;3.00;1.30;;;;;;;8.24;64.17;99468.50;1088457;54;20088;-78
2022/02/04 17:36:39;;;;;;;2.90;1.30;;;;;;;8.13;64.64;99469.50;1088236;54;20034;-79
2022/02/04 17:37:54;;;;;;;;;;;;;;;;;;;;;
2022/02/04 17:38:58;;;;;;;3.45;1.48;;;;;;;8.26;64.36;99467.38;1088411;54;20022;-78
2022/02/04 17:40:03;;;;;;;3.95;1.52;;;;;;;8.26;64.51;99475.38;1088345;54;20023;-79
2022/02/04 17:41:09;;;;;;;4.72;1.45;;;;;;;8.21;64.65;99479.44;1088596;39;20626;-79
2022/02/04 17:42:13;;;;;;;3.70;1.42;;;;;;;8.16;64.64;99479.88;1088330;54;20102;-78
2022/02/04 17:43:18;;;;;;;3.28;1.58;;;;;;;8.16;64.60;99479.03;1088682;39;20673;-80
2022/02/04 17:44:20;;;;;;;4.43;1.67;;;;;;;8.23;64.60;99482.81;1088343;54;20022;-79
2022/02/04 17:45:24;;;;;;;4.90;1.73;;;;;;;8.25;64.54;99481.66;1088313;54;20651;-78
2022/02/04 17:46:26;;;;;;;4.07;1.88;;;;;;;8.30;64.29;99494.56;1088310;54;20022;-79
2022/02/04 17:47:31;;;;;;;3.42;1.40;;;;;;;8.11;64.80;99485.63;1088248;54;20015;-78
2022/02/04 17:48:40;;;;;;;4.07;1.30;;;;;;;8.07;64.90;99488.72;1088353;54;20062;-78
2022/02/04 17:49:49;;;;;;;3.63;1.60;;;;;;;8.11;64.89;99490.13;1088392;54;20030;-78